Impacts METAR Board INFO
IDs:

KMCO - Orlando Intl, FL, US

Updated at: 0935 UTC 20 Nov 2017
Potential Impact None Slight Moderate High
Time19/21Z 19/22Z 19/23Z 20/00Z 20/01Z 20/02Z 20/03Z 20/04Z 20/05Z 20/06Z 20/07Z 20/08Z 20/09Z
VIS10 10 10 10 10 10 10 10 10 10 10 10 10
CIG70 80 -- -- 23 35 -- -- -- -- -- -- --
CoverBKNBKNFEWSCTBKNBKNFEWCLRCLRCLRCLRCLRCLR
FltCatVFRVFRVFRVFRMVFRVFRVFRVFRVFRVFRVFRVFRVFR
WX--------------------------
WDir26026026030033036010360360360360350350
WSpd8 9 4 11 12 16 14 12 12 10 9 8 7
WGst-- -- -- -- -- -- -- -- -- -- -- -- --
Raw hourly METARs
KMCO 192053Z 26008KT 10SM FEW060 BKN070 23/18 A2988 RMK AO2 SLP117 60000 T02330183 58003
KMCO 192153Z 26009KT 10SM FEW025 BKN080 23/19 A2990 RMK AO2 SLP121 T02280189
KMCO 192253Z 26004KT 10SM FEW030 FEW080 22/19 A2991 RMK AO2 SLP126 T02170189
KMCO 192353Z 30011KT 10SM FEW016 SCT021 SCT047 21/19 A2994 RMK AO2 SLP136 60000 T02110189 10267 20206 53018
KMCO 200053Z 33012KT 10SM SCT017 BKN023 20/17 A2997 RMK AO2 SLP145 T02000167
KMCO 200153Z 36016KT 10SM SCT020 BKN035 19/16 A2999 RMK AO2 SLP155 T01890156
KMCO 200253Z 01014KT 10SM FEW035 17/11 A3003 RMK AO2 SLP167 T01670111 53031
KMCO 200353Z 36012KT 10SM CLR 16/08 A3005 RMK AO2 SLP175 T01560078
KMCO 200453Z 36012KT 10SM CLR 14/07 A3006 RMK AO2 SLP178 T01440067 402720128
KMCO 200553Z 36010KT 10SM CLR 13/05 A3007 RMK AO2 SLP181 T01280050 10211 20128 51015
KMCO 200653Z 36009KT 10SM CLR 13/04 A3007 RMK AO2 SLP181 T01280039
KMCO 200753Z 35008KT 10SM CLR 12/06 A3007 RMK AO2 SLP182 T01170056
KMCO 200853Z 35007KT 10SM CLR 11/06 A3008 RMK AO2 SLP184 T01060061 53003